sensor_id;sensor_type;location;lat;lon;timestamp;temperature;humidity
37410;DHT22;23275;48.914;12.566;2024-02-26T00:02:17;1.90;99.90
37410;DHT22;23275;48.914;12.566;2024-02-26T00:04:42;1.80;99.90
37410;DHT22;23275;48.914;12.566;2024-02-26T00:07:08;1.70;99.90
37410;DHT22;23275;48.914;12.566;2024-02-26T00:09:33;1.70;99.90
37410;DHT22;23275;48.914;12.566;2024-02-26T00:12:04;1.70;99.90
37410;DHT22;23275;48.914;12.566;2024-02-26T00:14:30;1.70;99.90
37410;DHT22;23275;48.914;12.566;2024-02-26T00:16:56;1.70;99.90
37410;DHT22;23275;48.914;12.566;2024-02-26T00:19:22;1.70;99.90
37410;DHT22;23275;48.914;12.566;2024-02-26T00:21:47;1.60;99.90
37410;DHT22;23275;48.914;12.566;2024-02-26T00:24:13;1.60;99.90
37410;DHT22;23275;48.914;12.566;2024-02-26T00:26:39;1.60;99.90
37410;DHT22;23275;48.914;12.566;2024-02-26T00:29:04;1.60;99.90
37410;DHT22;23275;48.914;12.566;2024-02-26T00:31:30;1.60;99.90
37410;DHT22;23275;48.914;12.566;2024-02-26T00:33:56;1.60;99.90
37410;DHT22;23275;48.914;12.566;2024-02-26T00:36:21;1.50;99.90
37410;DHT22;23275;48.914;12.566;2024-02-26T00:38:47;1.50;99.90
37410;DHT22;23275;48.914;12.566;2024-02-26T00:41:17;1.50;99.90
37410;DHT22;23275;48.914;12.566;2024-02-26T00:43:42;1.50;99.90
37410;DHT22;23275;48.914;12.566;2024-02-26T00:46:08;1.50;99.90
37410;DHT22;23275;48.914;12.566;2024-02-26T00:48:33;1.50;99.90
37410;DHT22;23275;48.914;12.566;2024-02-26T00:50:59;1.50;99.90
37410;DHT22;23275;48.914;12.566;2024-02-26T00:53:25;1.50;99.90
37410;DHT22;23275;48.914;12.566;2024-02-26T00:55:50;1.50;99.90
37410;DHT22;23275;48.914;12.566;2024-02-26T00:58:16;1.50;99.90
37410;DHT22;23275;48.914;12.566;2024-02-26T01:00:42;1.50;99.90
37410;DHT22;23275;48.914;12.566;2024-02-26T01:03:07;1.40;99.90
37410;DHT22;23275;48.914;12.566;2024-02-26T01:05:33;1.40;99.90
37410;DHT22;23275;48.914;12.566;2024-02-26T01:07:59;1.40;99.90
37410;DHT22;23275;48.914;12.566;2024-02-26T01:10:24;1.40;99.90
37410;DHT22;23275;48.914;12.566;2024-02-26T01:12:50;1.40;99.90
37410;DHT22;23275;48.914;12.566;2024-02-26T01:15:15;1.40;99.90
37410;DHT22;23275;48.914;12.566;2024-02-26T01:17:41;1.40;99.90
37410;DHT22;23275;48.914;12.566;2024-02-26T01:20:07;1.40;99.90
37410;DHT22;23275;48.914;12.566;2024-02-26T01:22:34;1.30;99.90
37410;DHT22;23275;48.914;12.566;2024-02-26T01:24:59;1.30;99.90
37410;DHT22;23275;48.914;12.566;2024-02-26T01:27:25;1.20;99.90
37410;DHT22;23275;48.914;12.566;2024-02-26T01:29:52;1.20;99.90
37410;DHT22;23275;48.914;12.566;2024-02-26T01:32:18;1.30;99.90
37410;DHT22;23275;48.914;12.566;2024-02-26T01:34:45;1.20;99.90
37410;DHT22;23275;48.914;12.566;2024-02-26T01:37:10;1.20;99.90
37410;DHT22;23275;48.914;12.566;2024-02-26T01:39:36;1.10;99.90
37410;DHT22;23275;48.914;12.566;2024-02-26T01:42:02;1.10;99.90
37410;DHT22;23275;48.914;12.566;2024-02-26T01:44:28;1.10;99.90
37410;DHT22;23275;48.914;12.566;2024-02-26T01:46:53;1.00;99.90
37410;DHT22;23275;48.914;12.566;2024-02-26T01:49:19;1.00;99.90
37410;DHT22;23275;48.914;12.566;2024-02-26T01:51:45;1.00;99.90
37410;DHT22;23275;48.914;12.566;2024-02-26T01:54:11;1.00;99.90
37410;DHT22;23275;48.914;12.566;2024-02-26T01:56:38;1.00;99.90
37410;DHT22;23275;48.914;12.566;2024-02-26T01:59:05;1.00;99.90
37410;DHT22;23275;48.914;12.566;2024-02-26T02:01:32;0.90;99.90
37410;DHT22;23275;48.914;12.566;2024-02-26T02:03:59;1.00;99.90
37410;DHT22;23275;48.914;12.566;2024-02-26T02:06:25;1.00;99.90
37410;DHT22;23275;48.914;12.566;2024-02-26T02:08:51;0.90;99.90
37410;DHT22;23275;48.914;12.566;2024-02-26T02:11:17;0.90;99.90
37410;DHT22;23275;48.914;12.566;2024-02-26T02:13:42;0.80;99.90
37410;DHT22;23275;48.914;12.566;2024-02-26T02:16:08;0.70;99.90
37410;DHT22;23275;48.914;12.566;2024-02-26T02:18:34;0.70;99.90
37410;DHT22;23275;48.914;12.566;2024-02-26T02:21:03;0.70;99.90
37410;DHT22;23275;48.914;12.566;2024-02-26T02:23:29;0.70;99.90
37410;DHT22;23275;48.914;12.566;2024-02-26T02:25:56;0.70;99.90
37410;DHT22;23275;48.914;12.566;2024-02-26T02:28:23;0.70;99.90
37410;DHT22;23275;48.914;12.566;2024-02-26T02:30:49;0.70;99.90
37410;DHT22;23275;48.914;12.566;2024-02-26T02:33:16;0.70;99.90
37410;DHT22;23275;48.914;12.566;2024-02-26T02:35:41;0.70;99.90
37410;DHT22;23275;48.914;12.566;2024-02-26T02:38:07;0.70;99.90
37410;DHT22;23275;48.914;12.566;2024-02-26T02:40:33;0.70;99.90
37410;DHT22;23275;48.914;12.566;2024-02-26T02:42:58;0.70;99.90
37410;DHT22;23275;48.914;12.566;2024-02-26T02:45:25;0.70;99.90
37410;DHT22;23275;48.914;12.566;2024-02-26T02:47:51;0.70;99.90
37410;DHT22;23275;48.914;12.566;2024-02-26T02:50:16;0.60;99.90
37410;DHT22;23275;48.914;12.566;2024-02-26T02:52:42;0.60;99.90
37410;DHT22;23275;48.914;12.566;2024-02-26T02:55:07;0.50;99.90
37410;DHT22;23275;48.914;12.566;2024-02-26T02:57:33;0.50;99.90
37410;DHT22;23275;48.914;12.566;2024-02-26T02:59:59;0.40;99.90
37410;DHT22;23275;48.914;12.566;2024-02-26T03:02:24;0.50;99.90
37410;DHT22;23275;48.914;12.566;2024-02-26T03:04:50;0.50;99.90
37410;DHT22;23275;48.914;12.566;2024-02-26T03:07:16;0.50;99.90
37410;DHT22;23275;48.914;12.566;2024-02-26T03:09:42;0.50;99.90
37410;DHT22;23275;48.914;12.566;2024-02-26T03:12:07;0.50;99.90
37410;DHT22;23275;48.914;12.566;2024-02-26T03:14:33;0.50;99.90
37410;DHT22;23275;48.914;12.566;2024-02-26T03:16:58;0.50;99.90
37410;DHT22;23275;48.914;12.566;2024-02-26T03:19:24;0.60;99.90
37410;DHT22;23275;48.914;12.566;2024-02-26T03:21:50;0.60;99.90
37410;DHT22;23275;48.914;12.566;2024-02-26T03:24:15;0.60;99.90
37410;DHT22;23275;48.914;12.566;2024-02-26T03:26:41;0.70;99.90
37410;DHT22;23275;48.914;12.566;2024-02-26T03:29:06;0.70;99.90
37410;DHT22;23275;48.914;12.566;2024-02-26T03:31:32;0.70;99.90
37410;DHT22;23275;48.914;12.566;2024-02-26T03:33:58;0.70;99.90
37410;DHT22;23275;48.914;12.566;2024-02-26T03:36:23;0.70;99.90
37410;DHT22;23275;48.914;12.566;2024-02-26T03:38:49;0.60;99.90
37410;DHT22;23275;48.914;12.566;2024-02-26T03:41:14;0.60;99.90
37410;DHT22;23275;48.914;12.566;2024-02-26T03:43:40;0.60;99.90
37410;DHT22;23275;48.914;12.566;2024-02-26T03:46:09;0.60;99.90
37410;DHT22;23275;48.914;12.566;2024-02-26T03:48:36;0.60;99.90
37410;DHT22;23275;48.914;12.566;2024-02-26T03:51:02;0.60;99.90
37410;DHT22;23275;48.914;12.566;2024-02-26T03:53:28;0.60;99.90
37410;DHT22;23275;48.914;12.566;2024-02-26T03:55:53;0.60;99.90
37410;DHT22;23275;48.914;12.566;2024-02-26T03:58:20;0.50;99.90
37410;DHT22;23275;48.914;12.566;2024-02-26T04:00:46;0.50;99.90
37410;DHT22;23275;48.914;12.566;2024-02-26T04:03:13;0.50;99.90
37410;DHT22;23275;48.914;12.566;2024-02-26T04:05:39;0.40;99.90
37410;DHT22;23275;48.914;12.566;2024-02-26T04:08:05;0.40;99.90
37410;DHT22;23275;48.914;12.566;2024-02-26T04:10:33;0.40;99.90
37410;DHT22;23275;48.914;12.566;2024-02-26T04:13:04;0.40;99.90
37410;DHT22;23275;48.914;12.566;2024-02-26T04:15:31;0.40;99.90
37410;DHT22;23275;48.914;12.566;2024-02-26T04:17:56;0.30;99.90
37410;DHT22;23275;48.914;12.566;2024-02-26T04:20:22;0.30;99.90
37410;DHT22;23275;48.914;12.566;2024-02-26T04:22:48;0.30;99.90
37410;DHT22;23275;48.914;12.566;2024-02-26T04:25:14;0.30;99.90
37410;DHT22;23275;48.914;12.566;2024-02-26T04:27:39;0.30;99.90
37410;DHT22;23275;48.914;12.566;2024-02-26T04:30:06;0.40;99.90
37410;DHT22;23275;48.914;12.566;2024-02-26T04:32:32;0.50;99.90
37410;DHT22;23275;48.914;12.566;2024-02-26T04:34:58;0.60;99.90
37410;DHT22;23275;48.914;12.566;2024-02-26T04:37:23;0.60;99.90
37410;DHT22;23275;48.914;12.566;2024-02-26T04:39:49;0.70;99.90
37410;DHT22;23275;48.914;12.566;2024-02-26T04:42:14;0.70;99.90
37410;DHT22;23275;48.914;12.566;2024-02-26T04:44:40;0.70;99.90
37410;DHT22;23275;48.914;12.566;2024-02-26T04:47:05;0.70;99.90
37410;DHT22;23275;48.914;12.566;2024-02-26T04:49:33;0.70;99.90
37410;DHT22;23275;48.914;12.566;2024-02-26T04:51:59;0.80;99.90
37410;DHT22;23275;48.914;12.566;2024-02-26T04:54:25;0.70;99.90
37410;DHT22;23275;48.914;12.566;2024-02-26T04:56:50;0.80;99.90
37410;DHT22;23275;48.914;12.566;2024-02-26T04:59:16;0.70;99.90
37410;DHT22;23275;48.914;12.566;2024-02-26T05:01:42;0.70;99.90
37410;DHT22;23275;48.914;12.566;2024-02-26T05:04:07;0.60;99.90
37410;DHT22;23275;48.914;12.566;2024-02-26T05:06:33;0.60;99.90
37410;DHT22;23275;48.914;12.566;2024-02-26T05:08:58;0.50;99.90
37410;DHT22;23275;48.914;12.566;2024-02-26T05:11:24;0.50;99.90
37410;DHT22;23275;48.914;12.566;2024-02-26T05:13:50;0.40;99.90
37410;DHT22;23275;48.914;12.566;2024-02-26T05:16:15;0.30;99.90
37410;DHT22;23275;48.914;12.566;2024-02-26T05:18:41;0.30;99.90
37410;DHT22;23275;48.914;12.566;2024-02-26T05:21:06;0.20;99.90
37410;DHT22;23275;48.914;12.566;2024-02-26T05:23:32;0.20;99.90
37410;DHT22;23275;48.914;12.566;2024-02-26T05:25:57;0.10;99.90
37410;DHT22;23275;48.914;12.566;2024-02-26T05:28:23;0.10;99.90
37410;DHT22;23275;48.914;12.566;2024-02-26T05:30:48;0.10;99.90
37410;DHT22;23275;48.914;12.566;2024-02-26T05:33:14;0.10;99.90
37410;DHT22;23275;48.914;12.566;2024-02-26T05:35:40;0.10;99.90
37410;DHT22;23275;48.914;12.566;2024-02-26T05:38:05;0.20;99.90
37410;DHT22;23275;48.914;12.566;2024-02-26T05:40:31;0.20;99.90
37410;DHT22;23275;48.914;12.566;2024-02-26T05:42:57;0.20;99.90
37410;DHT22;23275;48.914;12.566;2024-02-26T05:45:22;0.30;99.90
37410;DHT22;23275;48.914;12.566;2024-02-26T05:47:48;0.30;99.90
37410;DHT22;23275;48.914;12.566;2024-02-26T05:50:15;0.40;99.90
37410;DHT22;23275;48.914;12.566;2024-02-26T05:52:40;0.40;99.90
37410;DHT22;23275;48.914;12.566;2024-02-26T05:55:06;0.40;99.90
37410;DHT22;23275;48.914;12.566;2024-02-26T05:57:36;0.50;99.90
37410;DHT22;23275;48.914;12.566;2024-02-26T06:00:02;0.50;99.90
37410;DHT22;23275;48.914;12.566;2024-02-26T06:02:32;0.50;99.90
37410;DHT22;23275;48.914;12.566;2024-02-26T06:04:58;0.60;99.90
37410;DHT22;23275;48.914;12.566;2024-02-26T06:07:24;0.60;99.90
37410;DHT22;23275;48.914;12.566;2024-02-26T06:09:50;0.60;99.90
37410;DHT22;23275;48.914;12.566;2024-02-26T06:12:16;0.70;99.90
37410;DHT22;23275;48.914;12.566;2024-02-26T06:14:47;0.80;99.90
37410;DHT22;23275;48.914;12.566;2024-02-26T06:17:12;1.00;99.90
37410;DHT22;23275;48.914;12.566;2024-02-26T06:19:38;1.00;99.90
37410;DHT22;23275;48.914;12.566;2024-02-26T06:22:03;1.30;99.90
37410;DHT22;23275;48.914;12.566;2024-02-26T06:24:29;1.50;99.90
37410;DHT22;23275;48.914;12.566;2024-02-26T06:26:55;1.60;99.90
37410;DHT22;23275;48.914;12.566;2024-02-26T06:29:20;1.70;99.90
37410;DHT22;23275;48.914;12.566;2024-02-26T06:31:46;1.80;99.90
37410;DHT22;23275;48.914;12.566;2024-02-26T06:34:13;1.90;99.90
37410;DHT22;23275;48.914;12.566;2024-02-26T06:36:39;2.20;99.90
37410;DHT22;23275;48.914;12.566;2024-02-26T06:39:04;2.50;99.90
37410;DHT22;23275;48.914;12.566;2024-02-26T06:41:30;2.80;99.90
37410;DHT22;23275;48.914;12.566;2024-02-26T06:43:56;3.10;99.90
37410;DHT22;23275;48.914;12.566;2024-02-26T06:46:22;3.30;99.90
37410;DHT22;23275;48.914;12.566;2024-02-26T06:48:48;3.60;99.90
37410;DHT22;23275;48.914;12.566;2024-02-26T06:51:14;3.90;99.90
37410;DHT22;23275;48.914;12.566;2024-02-26T06:53:40;4.10;99.90
37410;DHT22;23275;48.914;12.566;2024-02-26T06:56:06;4.20;99.90
37410;DHT22;23275;48.914;12.566;2024-02-26T06:58:31;4.40;99.90
37410;DHT22;23275;48.914;12.566;2024-02-26T07:00:57;4.30;99.90
37410;DHT22;23275;48.914;12.566;2024-02-26T07:03:22;4.30;99.90
37410;DHT22;23275;48.914;12.566;2024-02-26T07:05:49;4.90;99.90
37410;DHT22;23275;48.914;12.566;2024-02-26T07:08:15;5.60;99.90
37410;DHT22;23275;48.914;12.566;2024-02-26T07:10:41;5.70;99.90
37410;DHT22;23275;48.914;12.566;2024-02-26T07:13:07;5.60;99.90
37410;DHT22;23275;48.914;12.566;2024-02-26T07:15:32;5.70;99.90
37410;DHT22;23275;48.914;12.566;2024-02-26T07:17:58;6.40;99.90
37410;DHT22;23275;48.914;12.566;2024-02-26T07:20:31;7.20;99.90
37410;DHT22;23275;48.914;12.566;2024-02-26T07:22:57;7.40;99.90
37410;DHT22;23275;48.914;12.566;2024-02-26T07:25:23;7.60;99.90
37410;DHT22;23275;48.914;12.566;2024-02-26T07:27:50;7.20;99.90
37410;DHT22;23275;48.914;12.566;2024-02-26T07:30:15;7.00;99.90
37410;DHT22;23275;48.914;12.566;2024-02-26T07:32:42;7.10;99.90
37410;DHT22;23275;48.914;12.566;2024-02-26T07:35:08;7.90;99.90
37410;DHT22;23275;48.914;12.566;2024-02-26T07:37:34;8.70;99.90
37410;DHT22;23275;48.914;12.566;2024-02-26T07:40:00;9.30;99.90
37410;DHT22;23275;48.914;12.566;2024-02-26T07:42:25;9.90;99.90
37410;DHT22;23275;48.914;12.566;2024-02-26T07:44:51;9.70;99.90
37410;DHT22;23275;48.914;12.566;2024-02-26T07:47:18;10.00;99.90
37410;DHT22;23275;48.914;12.566;2024-02-26T07:49:43;10.90;99.90
37410;DHT22;23275;48.914;12.566;2024-02-26T07:52:09;12.10;99.90
37410;DHT22;23275;48.914;12.566;2024-02-26T07:54:34;12.70;99.90
37410;DHT22;23275;48.914;12.566;2024-02-26T07:57:00;12.10;99.90
37410;DHT22;23275;48.914;12.566;2024-02-26T07:59:26;11.50;99.90
37410;DHT22;23275;48.914;12.566;2024-02-26T08:01:52;10.90;99.90
37410;DHT22;23275;48.914;12.566;2024-02-26T08:04:17;10.80;99.90
37410;DHT22;23275;48.914;12.566;2024-02-26T08:06:44;11.20;99.90
37410;DHT22;23275;48.914;12.566;2024-02-26T08:09:09;12.20;99.90
37410;DHT22;23275;48.914;12.566;2024-02-26T08:11:35;12.00;99.90
37410;DHT22;23275;48.914;12.566;2024-02-26T08:14:01;12.60;99.90
37410;DHT22;23275;48.914;12.566;2024-02-26T08:16:26;13.30;99.90
37410;DHT22;23275;48.914;12.566;2024-02-26T08:18:52;13.70;99.90
37410;DHT22;23275;48.914;12.566;2024-02-26T08:21:18;13.60;99.90
37410;DHT22;23275;48.914;12.566;2024-02-26T08:23:44;13.80;99.90
37410;DHT22;23275;48.914;12.566;2024-02-26T08:26:09;14.30;99.90
37410;DHT22;23275;48.914;12.566;2024-02-26T08:28:39;15.10;99.90
37410;DHT22;23275;48.914;12.566;2024-02-26T08:31:05;16.60;99.30
37410;DHT22;23275;48.914;12.566;2024-02-26T08:33:31;17.50;95.30
37410;DHT22;23275;48.914;12.566;2024-02-26T08:35:56;18.00;93.50
37410;DHT22;23275;48.914;12.566;2024-02-26T08:38:22;18.90;89.00
37410;DHT22;23275;48.914;12.566;2024-02-26T08:40:48;20.50;81.20
37410;DHT22;23275;48.914;12.566;2024-02-26T08:43:14;21.60;77.00
37410;DHT22;23275;48.914;12.566;2024-02-26T08:45:39;23.20;67.90
37410;DHT22;23275;48.914;12.566;2024-02-26T08:48:05;24.20;62.30
37410;DHT22;23275;48.914;12.566;2024-02-26T08:50:31;26.10;57.10
37410;DHT22;23275;48.914;12.566;2024-02-26T08:52:57;25.80;52.00
37410;DHT22;23275;48.914;12.566;2024-02-26T08:55:22;26.70;50.70
37410;DHT22;23275;48.914;12.566;2024-02-26T08:57:48;28.10;47.80
37410;DHT22;23275;48.914;12.566;2024-02-26T09:00:14;29.20;47.00
37410;DHT22;23275;48.914;12.566;2024-02-26T09:02:41;29.70;43.10
37410;DHT22;23275;48.914;12.566;2024-02-26T09:05:09;28.10;42.90
37410;DHT22;23275;48.914;12.566;2024-02-26T09:07:35;24.90;45.60
37410;DHT22;23275;48.914;12.566;2024-02-26T09:10:01;22.80;49.40
37410;DHT22;23275;48.914;12.566;2024-02-26T09:12:27;20.00;52.90
37410;DHT22;23275;48.914;12.566;2024-02-26T09:14:52;17.00;59.90
37410;DHT22;23275;48.914;12.566;2024-02-26T09:17:18;15.10;66.90
37410;DHT22;23275;48.914;12.566;2024-02-26T09:19:43;13.90;70.90
37410;DHT22;23275;48.914;12.566;2024-02-26T09:22:09;12.90;74.80
37410;DHT22;23275;48.914;12.566;2024-02-26T09:24:35;13.60;76.20
37410;DHT22;23275;48.914;12.566;2024-02-26T09:27:01;14.60;71.20
37410;DHT22;23275;48.914;12.566;2024-02-26T09:29:26;13.70;72.60
37410;DHT22;23275;48.914;12.566;2024-02-26T09:31:52;12.50;76.40
37410;DHT22;23275;48.914;12.566;2024-02-26T09:34:18;12.10;80.50
37410;DHT22;23275;48.914;12.566;2024-02-26T09:36:43;13.90;80.10
37410;DHT22;23275;48.914;12.566;2024-02-26T09:39:09;15.50;74.00
37410;DHT22;23275;48.914;12.566;2024-02-26T09:41:37;16.50;71.70
37410;DHT22;23275;48.914;12.566;2024-02-26T09:44:05;19.30;65.40
37410;DHT22;23275;48.914;12.566;2024-02-26T09:46:31;23.80;56.30
37410;DHT22;23275;48.914;12.566;2024-02-26T09:48:57;26.30;52.20
37410;DHT22;23275;48.914;12.566;2024-02-26T09:51:23;27.60;48.30
37410;DHT22;23275;48.914;12.566;2024-02-26T09:53:52;28.90;46.60
37410;DHT22;23275;48.914;12.566;2024-02-26T09:56:18;28.70;44.60
37410;DHT22;23275;48.914;12.566;2024-02-26T09:58:44;27.60;45.80
37410;DHT22;23275;48.914;12.566;2024-02-26T10:01:16;25.60;46.20
37410;DHT22;23275;48.914;12.566;2024-02-26T10:03:43;23.00;49.10
37410;DHT22;23275;48.914;12.566;2024-02-26T10:06:13;20.30;52.90
37410;DHT22;23275;48.914;12.566;2024-02-26T10:08:40;19.00;57.10
37410;DHT22;23275;48.914;12.566;2024-02-26T10:11:06;19.80;55.90
37410;DHT22;23275;48.914;12.566;2024-02-26T10:13:34;20.20;54.70
37410;DHT22;23275;48.914;12.566;2024-02-26T10:16:00;20.00;57.20
37410;DHT22;23275;48.914;12.566;2024-02-26T10:18:51;19.60;57.30
37410;DHT22;23275;48.914;12.566;2024-02-26T10:21:17;20.30;56.10
37410;DHT22;23275;48.914;12.566;2024-02-26T10:23:46;20.70;55.40
37410;DHT22;23275;48.914;12.566;2024-02-26T10:26:13;20.70;55.60
37410;DHT22;23275;48.914;12.566;2024-02-26T10:28:41;19.70;57.20
37410;DHT22;23275;48.914;12.566;2024-02-26T10:31:06;17.70;60.00
37410;DHT22;23275;48.914;12.566;2024-02-26T10:33:37;16.30;64.80
37410;DHT22;23275;48.914;12.566;2024-02-26T10:36:06;15.20;67.90
37410;DHT22;23275;48.914;12.566;2024-02-26T10:38:34;14.90;70.00
37410;DHT22;23275;48.914;12.566;2024-02-26T10:41:01;15.40;71.10
37410;DHT22;23275;48.914;12.566;2024-02-26T10:43:26;15.50;68.90
37410;DHT22;23275;48.914;12.566;2024-02-26T10:45:52;14.60;71.00
37410;DHT22;23275;48.914;12.566;2024-02-26T10:48:19;14.10;74.60
37410;DHT22;23275;48.914;12.566;2024-02-26T10:50:46;13.50;76.80
37410;DHT22;23275;48.914;12.566;2024-02-26T10:53:22;12.90;78.40
37410;DHT22;23275;48.914;12.566;2024-02-26T10:56:08;11.90;81.70
37410;DHT22;23275;48.914;12.566;2024-02-26T10:58:35;11.10;86.50
37410;DHT22;23275;48.914;12.566;2024-02-26T11:01:01;10.50;87.80
37410;DHT22;23275;48.914;12.566;2024-02-26T11:03:29;10.30;89.40
37410;DHT22;23275;48.914;12.566;2024-02-26T11:05:58;10.00;89.70
37410;DHT22;23275;48.914;12.566;2024-02-26T11:08:24;9.90;91.40
37410;DHT22;23275;48.914;12.566;2024-02-26T11:10:53;9.70;92.70
37410;DHT22;23275;48.914;12.566;2024-02-26T11:13:19;9.70;94.60
37410;DHT22;23275;48.914;12.566;2024-02-26T11:15:47;9.70;94.40
37410;DHT22;23275;48.914;12.566;2024-02-26T11:18:15;9.60;95.00
37410;DHT22;23275;48.914;12.566;2024-02-26T11:20:41;9.70;94.30
37410;DHT22;23275;48.914;12.566;2024-02-26T11:23:08;9.70;93.30
37410;DHT22;23275;48.914;12.566;2024-02-26T11:25:35;9.60;93.50
37410;DHT22;23275;48.914;12.566;2024-02-26T11:28:04;9.60;94.60
37410;DHT22;23275;48.914;12.566;2024-02-26T11:30:33;9.60;95.80
37410;DHT22;23275;48.914;12.566;2024-02-26T11:33:00;9.60;96.30
37410;DHT22;23275;48.914;12.566;2024-02-26T11:35:27;9.70;96.40
37410;DHT22;23275;48.914;12.566;2024-02-26T11:37:55;9.60;96.60
37410;DHT22;23275;48.914;12.566;2024-02-26T11:40:25;9.60;95.20
37410;DHT22;23275;48.914;12.566;2024-02-26T11:42:51;9.60;96.60
37410;DHT22;23275;48.914;12.566;2024-02-26T11:48:15;9.50;97.70
37410;DHT22;23275;48.914;12.566;2024-02-26T11:50:47;9.60;97.00
37410;DHT22;23275;48.914;12.566;2024-02-26T11:53:29;9.70;97.20
37410;DHT22;23275;48.914;12.566;2024-02-26T11:59:11;9.80;96.70
37410;DHT22;23275;48.914;12.566;2024-02-26T12:01:38;9.70;96.50
37410;DHT22;23275;48.914;12.566;2024-02-26T12:04:26;9.60;97.20
37410;DHT22;23275;48.914;12.566;2024-02-26T12:06:55;9.60;98.00
37410;DHT22;23275;48.914;12.566;2024-02-26T12:09:56;9.60;98.20
37410;DHT22;23275;48.914;12.566;2024-02-26T12:12:39;9.60;97.90
37410;DHT22;23275;48.914;12.566;2024-02-26T12:15:05;9.70;98.70
37410;DHT22;23275;48.914;12.566;2024-02-26T12:17:33;9.80;96.90
37410;DHT22;23275;48.914;12.566;2024-02-26T12:20:12;9.80;97.00
37410;DHT22;23275;48.914;12.566;2024-02-26T12:22:40;9.90;98.20
37410;DHT22;23275;48.914;12.566;2024-02-26T12:25:08;9.90;96.90
37410;DHT22;23275;48.914;12.566;2024-02-26T12:27:34;10.10;97.50
37410;DHT22;23275;48.914;12.566;2024-02-26T12:30:01;10.20;98.20
37410;DHT22;23275;48.914;12.566;2024-02-26T12:32:26;10.40;99.00
37410;DHT22;23275;48.914;12.566;2024-02-26T12:34:52;10.40;98.10
37410;DHT22;23275;48.914;12.566;2024-02-26T12:37:17;10.60;99.90
37410;DHT22;23275;48.914;12.566;2024-02-26T12:39:43;10.80;99.80
37410;DHT22;23275;48.914;12.566;2024-02-26T12:42:09;10.90;99.60
37410;DHT22;23275;48.914;12.566;2024-02-26T12:44:35;11.00;99.50
37410;DHT22;23275;48.914;12.566;2024-02-26T12:47:01;11.10;99.90
37410;DHT22;23275;48.914;12.566;2024-02-26T12:49:28;11.10;99.90
37410;DHT22;23275;48.914;12.566;2024-02-26T12:51:53;11.00;99.90
37410;DHT22;23275;48.914;12.566;2024-02-26T12:54:20;10.90;99.90
37410;DHT22;23275;48.914;12.566;2024-02-26T12:56:46;10.80;99.90
37410;DHT22;23275;48.914;12.566;2024-02-26T12:59:12;10.70;99.90
37410;DHT22;23275;48.914;12.566;2024-02-26T13:01:38;10.70;99.90
37410;DHT22;23275;48.914;12.566;2024-02-26T13:04:04;10.70;99.90
37410;DHT22;23275;48.914;12.566;2024-02-26T13:06:32;10.60;99.90
37410;DHT22;23275;48.914;12.566;2024-02-26T13:08:59;10.70;99.90
37410;DHT22;23275;48.914;12.566;2024-02-26T13:11:26;10.50;99.90
37410;DHT22;23275;48.914;12.566;2024-02-26T13:13:54;10.40;99.90
37410;DHT22;23275;48.914;12.566;2024-02-26T13:16:24;10.40;99.90
37410;DHT22;23275;48.914;12.566;2024-02-26T13:18:50;10.30;99.90
37410;DHT22;23275;48.914;12.566;2024-02-26T13:21:16;10.30;99.90
37410;DHT22;23275;48.914;12.566;2024-02-26T13:23:43;10.20;99.90
37410;DHT22;23275;48.914;12.566;2024-02-26T13:26:13;10.30;99.90
37410;DHT22;23275;48.914;12.566;2024-02-26T13:28:40;10.30;99.90
37410;DHT22;23275;48.914;12.566;2024-02-26T13:31:05;10.40;99.90
37410;DHT22;23275;48.914;12.566;2024-02-26T13:33:33;10.60;99.90
37410;DHT22;23275;48.914;12.566;2024-02-26T13:35:59;10.50;99.90
37410;DHT22;23275;48.914;12.566;2024-02-26T13:38:26;10.50;99.90
37410;DHT22;23275;48.914;12.566;2024-02-26T13:40:52;10.60;99.90
37410;DHT22;23275;48.914;12.566;2024-02-26T13:43:19;10.70;99.90
37410;DHT22;23275;48.914;12.566;2024-02-26T13:45:45;10.70;99.90
37410;DHT22;23275;48.914;12.566;2024-02-26T13:48:13;10.60;99.90
37410;DHT22;23275;48.914;12.566;2024-02-26T13:50:39;10.60;99.90
37410;DHT22;23275;48.914;12.566;2024-02-26T13:53:05;10.50;99.90
37410;DHT22;23275;48.914;12.566;2024-02-26T13:55:32;10.60;99.90
37410;DHT22;23275;48.914;12.566;2024-02-26T13:57:59;10.60;99.90
37410;DHT22;23275;48.914;12.566;2024-02-26T14:00:27;10.50;99.90
37410;DHT22;23275;48.914;12.566;2024-02-26T14:02:53;10.60;99.90
37410;DHT22;23275;48.914;12.566;2024-02-26T14:05:19;10.60;99.90
37410;DHT22;23275;48.914;12.566;2024-02-26T14:07:44;10.50;99.90
37410;DHT22;23275;48.914;12.566;2024-02-26T14:10:12;10.40;99.90
37410;DHT22;23275;48.914;12.566;2024-02-26T14:12:38;10.20;99.90
37410;DHT22;23275;48.914;12.566;2024-02-26T14:15:08;10.10;99.90
37410;DHT22;23275;48.914;12.566;2024-02-26T14:17:35;9.90;99.90
37410;DHT22;23275;48.914;12.566;2024-02-26T14:20:00;9.90;99.90
37410;DHT22;23275;48.914;12.566;2024-02-26T14:22:26;9.90;99.90
37410;DHT22;23275;48.914;12.566;2024-02-26T14:24:52;9.90;99.90
37410;DHT22;23275;48.914;12.566;2024-02-26T14:27:18;9.90;99.90
37410;DHT22;23275;48.914;12.566;2024-02-26T14:29:46;10.00;99.90
37410;DHT22;23275;48.914;12.566;2024-02-26T14:32:12;9.90;99.90
37410;DHT22;23275;48.914;12.566;2024-02-26T14:34:37;9.90;99.90
37410;DHT22;23275;48.914;12.566;2024-02-26T14:37:03;10.00;99.90
37410;DHT22;23275;48.914;12.566;2024-02-26T14:39:31;9.90;99.90
37410;DHT22;23275;48.914;12.566;2024-02-26T14:41:57;9.90;99.90
37410;DHT22;23275;48.914;12.566;2024-02-26T14:44:23;9.90;99.90
37410;DHT22;23275;48.914;12.566;2024-02-26T14:46:49;9.80;99.90
37410;DHT22;23275;48.914;12.566;2024-02-26T14:49:15;9.70;99.90
37410;DHT22;23275;48.914;12.566;2024-02-26T14:51:41;9.60;99.90
37410;DHT22;23275;48.914;12.566;2024-02-26T14:54:07;9.50;99.90
37410;DHT22;23275;48.914;12.566;2024-02-26T14:56:32;9.40;99.90
37410;DHT22;23275;48.914;12.566;2024-02-26T14:58:58;9.40;99.90
37410;DHT22;23275;48.914;12.566;2024-02-26T15:01:24;9.40;99.90
37410;DHT22;23275;48.914;12.566;2024-02-26T15:03:49;9.30;99.90
37410;DHT22;23275;48.914;12.566;2024-02-26T15:06:15;9.20;99.90
37410;DHT22;23275;48.914;12.566;2024-02-26T15:08:41;9.20;99.90
37410;DHT22;23275;48.914;12.566;2024-02-26T15:11:06;9.10;99.90
37410;DHT22;23275;48.914;12.566;2024-02-26T15:13:33;9.00;99.90
37410;DHT22;23275;48.914;12.566;2024-02-26T15:15:59;9.00;99.90
37410;DHT22;23275;48.914;12.566;2024-02-26T15:18:26;9.00;99.90
37410;DHT22;23275;48.914;12.566;2024-02-26T15:20:53;9.10;99.90
37410;DHT22;23275;48.914;12.566;2024-02-26T15:23:18;9.10;99.90
37410;DHT22;23275;48.914;12.566;2024-02-26T15:25:44;9.10;99.90
37410;DHT22;23275;48.914;12.566;2024-02-26T15:28:10;9.00;99.90